»·PEaware :: UAL1578 KSAN-KTUS

UAL1578 :: KSAN-KTUS

FLIGHT INFORMATION

Flight Status: Arrived
Operator:
United Airlines
More flights by this operator :: More flights under this callsign
Pilot: Utku A. (15598)
Aircraft: BOEING 737-800
(B738)
More flights by this aircraft type
Origin: KSAN San Diego Intl-Lindbergh
United States
Destination: KTUS Tucson Intl
United States
More flights between these airports :: More routes between these airports
Route: +BRDR7 IPL J2 GBN DINGO5
File this flight plan on PilotEdge
Remarks: 60 MIN RSVR
Altitude:
(Current/Filed)
37,000ft
Speed:
(Current/Filed)
454kts
Departed: 07-Aug-18 08:08 PM
Arrived: 07-Aug-18 09:40 PM
Distance/Time
Traveled:
319nm/1:32
Distance/Time
To Go:
Arrived

Flight Plot

Page will automatically refresh every two minutes.

Flight plan parsing failed; only flown route is shown


Map Options




Map Legend


Flown Route
Filed Route
Departure Airport
Arrival Airport
Navaid (VOR, NDB)
Fix

Horizontal Profiles

Position Reports

Time Latitude Longitude Heading Altitude Ground
Speed
07-Aug-18 19:40 32.734644 -117.203768 194 17ft 0kts
07-Aug-18 19:41 32.734644 -117.203768 194 17ft 0kts
07-Aug-18 19:42 32.734644 -117.203768 194 17ft 0kts
07-Aug-18 19:43 32.734644 -117.203768 194 17ft 0kts
07-Aug-18 19:44 32.734644 -117.203768 194 17ft 0kts
07-Aug-18 19:45 32.734644 -117.203768 194 17ft 0kts
07-Aug-18 19:46 32.734644 -117.203768 194 17ft 0kts
07-Aug-18 19:47 32.734644 -117.203768 194 17ft 0kts
07-Aug-18 19:48 32.734644 -117.203768 194 17ft 0kts
07-Aug-18 19:49 32.734644 -117.203768 194 17ft 0kts
07-Aug-18 19:50 32.734644 -117.203768 194 17ft 0kts
07-Aug-18 19:51 32.734644 -117.203768 194 17ft 0kts
07-Aug-18 19:52 32.734644 -117.203768 194 17ft 0kts
07-Aug-18 19:53 32.734644 -117.203768 194 17ft 0kts
07-Aug-18 19:54 32.734644 -117.203768 194 17ft 0kts
07-Aug-18 19:55 32.734644 -117.203768 194 17ft 0kts
07-Aug-18 19:56 32.734644 -117.203768 194 17ft 0kts
07-Aug-18 19:57 32.734644 -117.203768 194 17ft 0kts
07-Aug-18 19:58 32.734649 -117.203766 194 17ft 0kts
07-Aug-18 19:59 32.735155 -117.203983 122 17ft 2kts
07-Aug-18 20:00 32.735229 -117.204206 103 17ft 0kts
07-Aug-18 20:01 32.735229 -117.204206 103 17ft 0kts
07-Aug-18 20:02 32.735229 -117.204206 103 17ft 0kts
07-Aug-18 20:03 32.734955 -117.202689 80 17ft 10kts
07-Aug-18 20:04 32.734717 -117.198754 104 17ft 18kts
07-Aug-18 20:05 32.733187 -117.192450 106 20ft 20kts
07-Aug-18 20:06 32.731450 -117.185226 106 17ft 23kts
07-Aug-18 20:07 32.729877 -117.178762 106 20ft 15kts
07-Aug-18 20:08 32.730354 -117.176461 285 24ft 9kts
07-Aug-18 20:09 32.739464 -117.209628 289 1309ft 171kts
07-Aug-18 20:10 32.728434 -117.259076 201 4220ft 183kts
07-Aug-18 20:11 32.683318 -117.239355 136 7082ft 198kts
07-Aug-18 20:12 32.639409 -117.188044 135 9737ft 238kts
07-Aug-18 20:13 32.593684 -117.111795 93 11798ft 323kts
07-Aug-18 20:14 32.600051 -117.031907 84 14410ft 336kts
07-Aug-18 20:15 32.611497 -116.921170 82 17632ft 350kts
07-Aug-18 20:16 32.623504 -116.804038 82 20419ft 368kts
07-Aug-18 20:17 32.635994 -116.681067 82 22953ft 385kts
07-Aug-18 20:18 32.648773 -116.553972 82 25226ft 399kts
07-Aug-18 20:19 32.661970 -116.421344 82 27305ft 413kts
07-Aug-18 20:20 32.675338 -116.285479 83 29185ft 426kts
07-Aug-18 20:21 32.688885 -116.146148 83 31391ft 425kts
07-Aug-18 20:22 32.701640 -116.013458 83 33318ft 422kts
07-Aug-18 20:23 32.714709 -115.875932 83 35104ft 419kts
07-Aug-18 20:24 32.727547 -115.739247 83 36684ft 416kts
07-Aug-18 20:25 32.740670 -115.597864 83 36769ft 445kts
07-Aug-18 20:26 32.753140 -115.448095 86 36719ft 467kts
07-Aug-18 20:27 32.759380 -115.303077 97 36788ft 432kts
07-Aug-18 20:28 32.757714 -115.155863 88 36780ft 460kts
07-Aug-18 20:29 32.761122 -115.003633 88 36777ft 465kts
07-Aug-18 20:30 32.764793 -114.855303 89 36075ft 411kts
07-Aug-18 20:36 32.774766 -114.129178 89 36920ft 428kts
07-Aug-18 20:37 32.776412 -113.982792 88 36919ft 459kts
07-Aug-18 20:38 32.795387 -113.830659 79 36911ft 467kts
07-Aug-18 20:39 32.817313 -113.679558 80 36913ft 466kts
07-Aug-18 20:40 32.838894 -113.527415 80 36913ft 467kts
07-Aug-18 20:41 32.859895 -113.376316 80 36913ft 466kts
07-Aug-18 20:42 32.880653 -113.224937 80 36912ft 468kts
07-Aug-18 20:43 32.898062 -113.098083 80 36912ft 467kts
07-Aug-18 20:44 32.922570 -112.920580 80 36913ft 466kts
07-Aug-18 20:45 32.943671 -112.768930 79 36913ft 465kts
07-Aug-18 20:46 32.942394 -112.644745 105 35557ft 450kts
07-Aug-18 20:47 32.885558 -112.487708 114 32333ft 443kts
07-Aug-18 20:48 32.842482 -112.376750 114 30031ft 449kts
07-Aug-18 20:49 32.790789 -112.243652 115 27292ft 454kts
07-Aug-18 20:50 32.730555 -112.088998 115 24023ft 439kts
07-Aug-18 20:51 32.687549 -111.978958 115 21706ft 442kts
07-Aug-18 20:52 32.635429 -111.846020 115 18906ft 435kts
07-Aug-18 20:53 32.590544 -111.722360 99 16094ft 391kts
07-Aug-18 20:54 32.589098 -111.601872 89 14324ft 346kts
07-Aug-18 20:55 32.590072 -111.490921 89 12622ft 331kts
07-Aug-18 20:56 32.570588 -111.389908 135 11013ft 314kts
07-Aug-18 20:57 32.509589 -111.321764 139 9961ft 290kts
07-Aug-18 20:58 32.450637 -111.258071 141 9961ft 281kts
07-Aug-18 20:59 32.388091 -111.205385 159 9099ft 274kts
07-Aug-18 21:00 32.319327 -111.170809 158 7653ft 263kts
07-Aug-18 21:01 32.266998 -111.116586 138 6554ft 229kts
07-Aug-18 21:02 32.225426 -111.067895 138 5421ft 196kts
07-Aug-18 21:03 32.190436 -111.026693 136 4422ft 156kts
07-Aug-18 21:04 32.160704 -110.991349 135 3609ft 156kts
07-Aug-18 21:05 32.131674 -110.957460 132 3288ft 162kts
07-Aug-18 21:06 32.106324 -110.917060 121 6022ft 158kts
07-Aug-18 21:07 32.077748 -110.872078 129 6968ft 181kts
07-Aug-18 21:08 32.073816 -110.814406 38 6968ft 227kts
07-Aug-18 21:09 32.136595 -110.827170 341 6975ft 245kts
07-Aug-18 21:10 32.199379 -110.857823 339 6973ft 260kts
07-Aug-18 21:11 32.260293 -110.897780 302 6976ft 260kts
07-Aug-18 21:12 32.296836 -110.971420 299 6971ft 260kts
07-Aug-18 21:13 32.334200 -111.044064 299 6962ft 258kts
07-Aug-18 21:14 32.369124 -111.115552 275 5972ft 241kts
07-Aug-18 21:15 32.330687 -111.161533 167 5991ft 211kts
07-Aug-18 21:16 32.280101 -111.131221 140 5999ft 204kts
07-Aug-18 21:17 32.240043 -111.085041 138 5888ft 193kts
07-Aug-18 21:18 32.203460 -111.042050 136 4814ft 184kts
07-Aug-18 21:19 32.171045 -111.003884 136 3885ft 144kts
07-Aug-18 21:20 32.142659 -110.970567 136 3131ft 148kts
07-Aug-18 21:21 32.114252 -110.933686 125 4529ft 152kts
07-Aug-18 21:22 32.087799 -110.891215 130 6734ft 173kts
07-Aug-18 21:23 32.053234 -110.839901 129 7006ft 210kts
07-Aug-18 21:24 32.022711 -110.782979 88 7007ft 215kts
07-Aug-18 21:25 32.072838 -110.749022 9 6995ft 234kts
07-Aug-18 21:26 32.137127 -110.739904 9 7686ft 235kts
07-Aug-18 21:27 32.195906 -110.759809 310 8993ft 245kts
07-Aug-18 21:28 32.238973 -110.823289 309 9984ft 250kts
07-Aug-18 21:29 32.281916 -110.887474 309 9675ft 249kts
07-Aug-18 21:30 32.323427 -110.946946 309 9015ft 233kts
07-Aug-18 21:31 32.367402 -111.006471 309 8999ft 239kts
07-Aug-18 21:32 32.404576 -111.068857 266 7686ft 225kts
07-Aug-18 21:33 32.369673 -111.118637 219 6817ft 196kts
07-Aug-18 21:34 32.326612 -111.148762 169 6034ft 184kts
07-Aug-18 21:35 32.279855 -111.124438 160 6015ft 178kts
07-Aug-18 21:36 32.241325 -111.086543 140 5822ft 183kts
07-Aug-18 21:37 32.207670 -111.046923 140 4912ft 159kts
07-Aug-18 21:38 32.178439 -111.012559 141 4119ft 142kts
07-Aug-18 21:39 32.149720 -110.978728 140 3346ft 143kts
07-Aug-18 21:40 32.122209 -110.946485 141 2591ft 131kts
07-Aug-18 21:41 32.111353 -110.933025 100 2623ft 17kts
07-Aug-18 21:42 32.113678 -110.934023 315 2618ft 21kts
07-Aug-18 21:43 32.117628 -110.937947 48 2605ft 11kts
07-Aug-18 21:44 32.119594 -110.938566 87 2600ft 5kts
07-Aug-18 21:45 32.119622 -110.937786 89 2601ft 0kts

Navigation Log

Ident Type
Flight plan parsing failed, navigation log unavailable